sensor_id;sensor_type;location;lat;lon;timestamp;P1;durP1;ratioP1;P2;durP2;ratioP2
23578;SDS011;11967;50.852;4.400;2022-07-19T00:02:03;5.15;;;1.85;;
23578;SDS011;11967;50.852;4.400;2022-07-19T00:04:30;5.10;;;1.90;;
23578;SDS011;11967;50.852;4.400;2022-07-19T00:06:56;4.70;;;2.15;;
23578;SDS011;11967;50.852;4.400;2022-07-19T00:09:22;4.03;;;2.17;;
23578;SDS011;11967;50.852;4.400;2022-07-19T00:11:49;9.30;;;2.20;;
23578;SDS011;11967;50.852;4.400;2022-07-19T00:14:14;7.28;;;1.95;;
23578;SDS011;11967;50.852;4.400;2022-07-19T00:16:41;3.83;;;1.90;;
23578;SDS011;11967;50.852;4.400;2022-07-19T00:19:07;7.68;;;2.03;;
23578;SDS011;11967;50.852;4.400;2022-07-19T00:21:33;4.78;;;2.08;;
23578;SDS011;11967;50.852;4.400;2022-07-19T00:23:59;6.93;;;2.10;;
23578;SDS011;11967;50.852;4.400;2022-07-19T00:26:25;4.03;;;2.10;;
23578;SDS011;11967;50.852;4.400;2022-07-19T00:28:52;6.20;;;2.05;;
23578;SDS011;11967;50.852;4.400;2022-07-19T00:31:19;6.50;;;2.03;;
23578;SDS011;11967;50.852;4.400;2022-07-19T00:33:49;5.60;;;2.05;;
23578;SDS011;11967;50.852;4.400;2022-07-19T00:36:15;7.32;;;2.30;;
23578;SDS011;11967;50.852;4.400;2022-07-19T00:38:41;5.50;;;1.92;;
23578;SDS011;11967;50.852;4.400;2022-07-19T00:41:07;4.80;;;2.00;;
23578;SDS011;11967;50.852;4.400;2022-07-19T00:43:33;5.40;;;1.98;;
23578;SDS011;11967;50.852;4.400;2022-07-19T00:45:58;4.53;;;2.10;;
23578;SDS011;11967;50.852;4.400;2022-07-19T00:48:24;5.57;;;1.80;;
23578;SDS011;11967;50.852;4.400;2022-07-19T00:50:50;8.45;;;1.98;;
23578;SDS011;11967;50.852;4.400;2022-07-19T00:53:17;4.78;;;2.10;;
23578;SDS011;11967;50.852;4.400;2022-07-19T00:55:44;4.88;;;2.15;;
23578;SDS011;11967;50.852;4.400;2022-07-19T00:58:11;6.07;;;2.13;;
23578;SDS011;11967;50.852;4.400;2022-07-19T01:00:40;4.53;;;2.05;;
23578;SDS011;11967;50.852;4.400;2022-07-19T01:03:07;4.00;;;2.13;;
23578;SDS011;11967;50.852;4.400;2022-07-19T01:05:33;3.22;;;1.90;;
23578;SDS011;11967;50.852;4.400;2022-07-19T01:07:59;4.75;;;2.00;;
23578;SDS011;11967;50.852;4.400;2022-07-19T01:10:26;5.18;;;1.73;;
23578;SDS011;11967;50.852;4.400;2022-07-19T01:12:53;3.97;;;1.90;;
23578;SDS011;11967;50.852;4.400;2022-07-19T01:15:20;5.95;;;2.03;;
23578;SDS011;11967;50.852;4.400;2022-07-19T01:17:49;8.25;;;2.28;;
23578;SDS011;11967;50.852;4.400;2022-07-19T01:20:15;4.53;;;2.10;;
23578;SDS011;11967;50.852;4.400;2022-07-19T01:22:42;6.13;;;2.42;;
23578;SDS011;11967;50.852;4.400;2022-07-19T01:25:08;9.00;;;2.17;;
23578;SDS011;11967;50.852;4.400;2022-07-19T01:27:42;6.75;;;2.20;;
23578;SDS011;11967;50.852;4.400;2022-07-19T01:30:14;4.93;;;1.90;;
23578;SDS011;11967;50.852;4.400;2022-07-19T01:32:44;5.35;;;1.90;;
23578;SDS011;11967;50.852;4.400;2022-07-19T01:35:10;6.72;;;2.08;;
23578;SDS011;11967;50.852;4.400;2022-07-19T01:37:36;3.30;;;1.85;;
23578;SDS011;11967;50.852;4.400;2022-07-19T01:40:02;9.05;;;2.15;;
23578;SDS011;11967;50.852;4.400;2022-07-19T01:42:29;5.00;;;2.30;;
23578;SDS011;11967;50.852;4.400;2022-07-19T01:44:55;5.70;;;2.00;;
23578;SDS011;11967;50.852;4.400;2022-07-19T01:47:21;5.78;;;2.25;;
23578;SDS011;11967;50.852;4.400;2022-07-19T01:49:46;4.75;;;1.95;;
23578;SDS011;11967;50.852;4.400;2022-07-19T01:52:12;5.03;;;2.10;;
23578;SDS011;11967;50.852;4.400;2022-07-19T01:54:37;5.55;;;2.63;;
23578;SDS011;11967;50.852;4.400;2022-07-19T01:57:03;5.90;;;2.10;;
23578;SDS011;11967;50.852;4.400;2022-07-19T01:59:29;7.43;;;2.20;;
23578;SDS011;11967;50.852;4.400;2022-07-19T02:01:54;5.25;;;2.15;;
23578;SDS011;11967;50.852;4.400;2022-07-19T02:04:20;5.97;;;2.10;;
23578;SDS011;11967;50.852;4.400;2022-07-19T02:06:45;4.90;;;2.20;;
23578;SDS011;11967;50.852;4.400;2022-07-19T02:09:11;7.50;;;2.30;;
23578;SDS011;11967;50.852;4.400;2022-07-19T02:11:37;4.60;;;1.90;;
23578;SDS011;11967;50.852;4.400;2022-07-19T02:14:09;7.28;;;1.95;;
23578;SDS011;11967;50.852;4.400;2022-07-19T02:16:35;3.80;;;2.10;;
23578;SDS011;11967;50.852;4.400;2022-07-19T02:19:02;7.95;;;2.38;;
23578;SDS011;11967;50.852;4.400;2022-07-19T02:21:28;5.57;;;1.90;;
23578;SDS011;11967;50.852;4.400;2022-07-19T02:23:54;6.55;;;2.05;;
23578;SDS011;11967;50.852;4.400;2022-07-19T02:26:20;10.15;;;2.15;;
23578;SDS011;11967;50.852;4.400;2022-07-19T02:28:46;4.07;;;2.13;;
23578;SDS011;11967;50.852;4.400;2022-07-19T02:31:12;7.32;;;2.22;;
23578;SDS011;11967;50.852;4.400;2022-07-19T02:33:37;5.18;;;2.25;;
23578;SDS011;11967;50.852;4.400;2022-07-19T02:36:03;8.27;;;2.20;;
23578;SDS011;11967;50.852;4.400;2022-07-19T02:38:29;8.18;;;2.20;;
23578;SDS011;11967;50.852;4.400;2022-07-19T02:40:55;4.93;;;2.00;;
23578;SDS011;11967;50.852;4.400;2022-07-19T02:43:21;10.00;;;2.35;;
23578;SDS011;11967;50.852;4.400;2022-07-19T02:45:46;6.03;;;2.33;;
23578;SDS011;11967;50.852;4.400;2022-07-19T02:48:12;4.13;;;2.00;;
23578;SDS011;11967;50.852;4.400;2022-07-19T02:50:37;5.53;;;2.25;;
23578;SDS011;11967;50.852;4.400;2022-07-19T02:53:04;6.65;;;2.20;;
23578;SDS011;11967;50.852;4.400;2022-07-19T02:55:30;4.93;;;2.08;;
23578;SDS011;11967;50.852;4.400;2022-07-19T02:57:56;7.45;;;2.22;;
23578;SDS011;11967;50.852;4.400;2022-07-19T03:00:21;3.38;;;2.00;;
23578;SDS011;11967;50.852;4.400;2022-07-19T03:02:47;3.80;;;2.08;;
23578;SDS011;11967;50.852;4.400;2022-07-19T03:05:13;6.03;;;2.20;;
23578;SDS011;11967;50.852;4.400;2022-07-19T03:07:38;5.75;;;1.98;;
23578;SDS011;11967;50.852;4.400;2022-07-19T03:10:04;9.18;;;2.30;;
23578;SDS011;11967;50.852;4.400;2022-07-19T03:12:31;3.30;;;2.25;;
23578;SDS011;11967;50.852;4.400;2022-07-19T03:14:57;5.47;;;2.08;;
23578;SDS011;11967;50.852;4.400;2022-07-19T03:17:23;5.03;;;2.20;;
23578;SDS011;11967;50.852;4.400;2022-07-19T03:19:48;6.25;;;2.17;;
23578;SDS011;11967;50.852;4.400;2022-07-19T03:22:14;3.97;;;2.00;;
23578;SDS011;11967;50.852;4.400;2022-07-19T03:24:40;3.20;;;2.20;;
23578;SDS011;11967;50.852;4.400;2022-07-19T03:27:05;4.72;;;1.90;;
23578;SDS011;11967;50.852;4.400;2022-07-19T03:29:31;4.75;;;2.03;;
23578;SDS011;11967;50.852;4.400;2022-07-19T03:31:57;6.75;;;2.00;;
23578;SDS011;11967;50.852;4.400;2022-07-19T03:34:23;6.47;;;2.28;;
23578;SDS011;11967;50.852;4.400;2022-07-19T03:36:50;8.05;;;2.40;;
23578;SDS011;11967;50.852;4.400;2022-07-19T03:39:15;5.07;;;2.00;;
23578;SDS011;11967;50.852;4.400;2022-07-19T03:41:41;5.18;;;2.08;;
23578;SDS011;11967;50.852;4.400;2022-07-19T03:44:06;7.97;;;2.30;;
23578;SDS011;11967;50.852;4.400;2022-07-19T03:46:32;7.00;;;2.33;;
23578;SDS011;11967;50.852;4.400;2022-07-19T03:48:58;6.55;;;2.40;;
23578;SDS011;11967;50.852;4.400;2022-07-19T03:51:24;3.03;;;1.88;;
23578;SDS011;11967;50.852;4.400;2022-07-19T03:53:49;4.78;;;2.22;;
23578;SDS011;11967;50.852;4.400;2022-07-19T03:56:15;4.93;;;2.10;;
23578;SDS011;11967;50.852;4.400;2022-07-19T03:58:42;5.18;;;2.10;;
23578;SDS011;11967;50.852;4.400;2022-07-19T04:01:08;5.80;;;2.15;;
23578;SDS011;11967;50.852;4.400;2022-07-19T04:03:37;6.72;;;2.10;;
23578;SDS011;11967;50.852;4.400;2022-07-19T04:06:04;4.00;;;2.20;;
23578;SDS011;11967;50.852;4.400;2022-07-19T04:08:31;6.03;;;2.20;;
23578;SDS011;11967;50.852;4.400;2022-07-19T04:10:57;6.07;;;2.20;;
23578;SDS011;11967;50.852;4.400;2022-07-19T04:13:23;8.02;;;2.60;;
23578;SDS011;11967;50.852;4.400;2022-07-19T04:15:49;4.53;;;2.17;;
23578;SDS011;11967;50.852;4.400;2022-07-19T04:18:16;8.27;;;2.13;;
23578;SDS011;11967;50.852;4.400;2022-07-19T04:20:42;5.57;;;2.50;;
23578;SDS011;11967;50.852;4.400;2022-07-19T04:23:08;3.55;;;2.00;;
23578;SDS011;11967;50.852;4.400;2022-07-19T04:25:34;5.00;;;2.20;;
23578;SDS011;11967;50.852;4.400;2022-07-19T04:27:59;4.50;;;1.92;;
23578;SDS011;11967;50.852;4.400;2022-07-19T04:30:26;7.00;;;2.28;;
23578;SDS011;11967;50.852;4.400;2022-07-19T04:32:52;5.40;;;2.10;;
23578;SDS011;11967;50.852;4.400;2022-07-19T04:35:18;4.15;;;2.05;;
23578;SDS011;11967;50.852;4.400;2022-07-19T04:37:44;6.50;;;2.15;;
23578;SDS011;11967;50.852;4.400;2022-07-19T04:40:10;3.72;;;1.98;;
23578;SDS011;11967;50.852;4.400;2022-07-19T04:42:36;6.30;;;2.10;;
23578;SDS011;11967;50.852;4.400;2022-07-19T04:45:02;8.68;;;2.83;;
23578;SDS011;11967;50.852;4.400;2022-07-19T04:47:29;4.47;;;2.20;;
23578;SDS011;11967;50.852;4.400;2022-07-19T04:49:55;7.00;;;2.08;;
23578;SDS011;11967;50.852;4.400;2022-07-19T04:52:20;4.93;;;2.13;;
23578;SDS011;11967;50.852;4.400;2022-07-19T04:54:46;4.38;;;2.25;;
23578;SDS011;11967;50.852;4.400;2022-07-19T04:57:12;7.90;;;2.80;;
23578;SDS011;11967;50.852;4.400;2022-07-19T04:59:38;6.00;;;2.17;;
23578;SDS011;11967;50.852;4.400;2022-07-19T05:02:04;5.15;;;2.38;;
23578;SDS011;11967;50.852;4.400;2022-07-19T05:04:37;9.32;;;2.33;;
23578;SDS011;11967;50.852;4.400;2022-07-19T05:07:03;5.50;;;2.25;;
23578;SDS011;11967;50.852;4.400;2022-07-19T05:09:29;3.97;;;1.90;;
23578;SDS011;11967;50.852;4.400;2022-07-19T05:11:55;7.10;;;2.08;;
23578;SDS011;11967;50.852;4.400;2022-07-19T05:14:21;3.53;;;2.28;;
23578;SDS011;11967;50.852;4.400;2022-07-19T05:16:47;4.25;;;1.90;;
23578;SDS011;11967;50.852;4.400;2022-07-19T05:19:14;5.30;;;1.95;;
23578;SDS011;11967;50.852;4.400;2022-07-19T05:21:40;10.85;;;2.30;;
23578;SDS011;11967;50.852;4.400;2022-07-19T05:24:06;5.35;;;2.13;;
23578;SDS011;11967;50.852;4.400;2022-07-19T05:26:32;6.63;;;2.33;;
23578;SDS011;11967;50.852;4.400;2022-07-19T05:28:58;5.75;;;1.90;;
23578;SDS011;11967;50.852;4.400;2022-07-19T05:31:25;4.40;;;2.10;;
23578;SDS011;11967;50.852;4.400;2022-07-19T05:33:50;8.40;;;2.03;;
23578;SDS011;11967;50.852;4.400;2022-07-19T05:36:16;6.68;;;2.13;;
23578;SDS011;11967;50.852;4.400;2022-07-19T05:38:42;4.85;;;1.85;;
23578;SDS011;11967;50.852;4.400;2022-07-19T05:41:07;5.47;;;1.90;;
23578;SDS011;11967;50.852;4.400;2022-07-19T05:43:35;10.25;;;2.00;;
23578;SDS011;11967;50.852;4.400;2022-07-19T05:46:02;13.30;;;2.30;;
23578;SDS011;11967;50.852;4.400;2022-07-19T05:48:28;5.13;;;2.22;;
23578;SDS011;11967;50.852;4.400;2022-07-19T05:59:30;7.63;;;2.45;;
23578;SDS011;11967;50.852;4.400;2022-07-19T06:01:58;6.15;;;2.30;;
23578;SDS011;11967;50.852;4.400;2022-07-19T06:04:25;5.85;;;2.60;;
23578;SDS011;11967;50.852;4.400;2022-07-19T06:06:51;6.57;;;2.20;;
23578;SDS011;11967;50.852;4.400;2022-07-19T06:09:17;6.38;;;2.20;;
23578;SDS011;11967;50.852;4.400;2022-07-19T06:11:43;3.15;;;2.15;;
23578;SDS011;11967;50.852;4.400;2022-07-19T06:14:08;9.25;;;2.25;;
23578;SDS011;11967;50.852;4.400;2022-07-19T06:16:36;4.93;;;2.05;;
23578;SDS011;11967;50.852;4.400;2022-07-19T06:19:04;8.18;;;2.35;;
23578;SDS011;11967;50.852;4.400;2022-07-19T06:21:30;5.25;;;2.25;;
23578;SDS011;11967;50.852;4.400;2022-07-19T06:23:56;5.07;;;2.08;;
23578;SDS011;11967;50.852;4.400;2022-07-19T06:26:22;6.70;;;2.53;;
23578;SDS011;11967;50.852;4.400;2022-07-19T06:31:16;9.90;;;2.10;;
23578;SDS011;11967;50.852;4.400;2022-07-19T06:33:44;5.85;;;2.30;;
23578;SDS011;11967;50.852;4.400;2022-07-19T06:36:13;6.70;;;2.50;;
23578;SDS011;11967;50.852;4.400;2022-07-19T06:38:38;4.47;;;2.13;;
23578;SDS011;11967;50.852;4.400;2022-07-19T06:41:04;7.22;;;2.40;;
23578;SDS011;11967;50.852;4.400;2022-07-19T06:43:30;5.43;;;2.35;;
23578;SDS011;11967;50.852;4.400;2022-07-19T06:45:56;6.70;;;2.28;;
23578;SDS011;11967;50.852;4.400;2022-07-19T06:48:22;5.43;;;2.03;;
23578;SDS011;11967;50.852;4.400;2022-07-19T06:50:48;5.72;;;2.13;;
23578;SDS011;11967;50.852;4.400;2022-07-19T06:53:13;5.32;;;2.40;;
23578;SDS011;11967;50.852;4.400;2022-07-19T06:55:39;8.93;;;2.55;;
23578;SDS011;11967;50.852;4.400;2022-07-19T06:58:04;5.07;;;2.60;;
23578;SDS011;11967;50.852;4.400;2022-07-19T07:00:30;5.95;;;2.45;;
23578;SDS011;11967;50.852;4.400;2022-07-19T07:02:56;11.13;;;2.75;;
23578;SDS011;11967;50.852;4.400;2022-07-19T07:05:21;8.00;;;2.38;;
23578;SDS011;11967;50.852;4.400;2022-07-19T07:07:47;5.10;;;2.47;;
23578;SDS011;11967;50.852;4.400;2022-07-19T07:10:14;8.07;;;2.72;;
23578;SDS011;11967;50.852;4.400;2022-07-19T07:12:39;8.73;;;2.20;;
23578;SDS011;11967;50.852;4.400;2022-07-19T07:15:05;11.02;;;2.70;;
23578;SDS011;11967;50.852;4.400;2022-07-19T07:17:32;4.82;;;2.17;;
23578;SDS011;11967;50.852;4.400;2022-07-19T07:19:59;6.90;;;2.80;;
23578;SDS011;11967;50.852;4.400;2022-07-19T07:22:25;7.25;;;2.38;;
23578;SDS011;11967;50.852;4.400;2022-07-19T07:24:50;4.15;;;2.28;;
23578;SDS011;11967;50.852;4.400;2022-07-19T07:27:16;7.10;;;2.75;;
23578;SDS011;11967;50.852;4.400;2022-07-19T07:29:42;5.53;;;2.28;;
23578;SDS011;11967;50.852;4.400;2022-07-19T07:32:08;3.72;;;2.20;;
23578;SDS011;11967;50.852;4.400;2022-07-19T07:34:33;6.07;;;2.55;;
23578;SDS011;11967;50.852;4.400;2022-07-19T07:36:59;8.07;;;2.97;;
23578;SDS011;11967;50.852;4.400;2022-07-19T07:39:25;5.78;;;2.63;;
23578;SDS011;11967;50.852;4.400;2022-07-19T07:41:50;6.93;;;2.50;;
23578;SDS011;11967;50.852;4.400;2022-07-19T07:44:16;6.72;;;2.65;;
23578;SDS011;11967;50.852;4.400;2022-07-19T07:46:42;6.72;;;2.40;;
23578;SDS011;11967;50.852;4.400;2022-07-19T07:49:07;7.30;;;2.65;;
23578;SDS011;11967;50.852;4.400;2022-07-19T07:51:34;8.82;;;2.70;;
23578;SDS011;11967;50.852;4.400;2022-07-19T07:54:00;7.07;;;2.95;;
23578;SDS011;11967;50.852;4.400;2022-07-19T07:56:26;7.18;;;2.60;;
23578;SDS011;11967;50.852;4.400;2022-07-19T07:58:54;5.50;;;2.58;;
23578;SDS011;11967;50.852;4.400;2022-07-19T08:01:19;6.78;;;2.70;;
23578;SDS011;11967;50.852;4.400;2022-07-19T08:03:45;7.47;;;2.72;;
23578;SDS011;11967;50.852;4.400;2022-07-19T08:06:10;5.47;;;2.35;;
23578;SDS011;11967;50.852;4.400;2022-07-19T08:08:37;5.82;;;2.55;;
23578;SDS011;11967;50.852;4.400;2022-07-19T08:11:03;5.45;;;3.05;;
23578;SDS011;11967;50.852;4.400;2022-07-19T08:13:29;6.10;;;2.72;;
23578;SDS011;11967;50.852;4.400;2022-07-19T08:15:54;5.88;;;2.40;;
23578;SDS011;11967;50.852;4.400;2022-07-19T08:18:20;6.50;;;2.80;;
23578;SDS011;11967;50.852;4.400;2022-07-19T08:20:47;5.70;;;2.80;;
23578;SDS011;11967;50.852;4.400;2022-07-19T08:23:13;8.00;;;2.83;;
23578;SDS011;11967;50.852;4.400;2022-07-19T08:25:38;9.93;;;2.70;;
23578;SDS011;11967;50.852;4.400;2022-07-19T08:28:04;6.60;;;2.97;;
23578;SDS011;11967;50.852;4.400;2022-07-19T08:30:30;7.13;;;2.80;;
23578;SDS011;11967;50.852;4.400;2022-07-19T08:32:56;8.20;;;2.70;;
23578;SDS011;11967;50.852;4.400;2022-07-19T08:35:22;4.45;;;2.80;;
23578;SDS011;11967;50.852;4.400;2022-07-19T08:37:48;6.38;;;2.90;;
23578;SDS011;11967;50.852;4.400;2022-07-19T08:40:15;8.50;;;2.88;;
23578;SDS011;11967;50.852;4.400;2022-07-19T08:42:40;9.50;;;2.53;;
23578;SDS011;11967;50.852;4.400;2022-07-19T08:45:08;8.50;;;2.88;;
23578;SDS011;11967;50.852;4.400;2022-07-19T08:47:35;9.48;;;3.15;;
23578;SDS011;11967;50.852;4.400;2022-07-19T08:50:04;6.95;;;2.63;;
23578;SDS011;11967;50.852;4.400;2022-07-19T08:52:32;9.30;;;3.30;;
23578;SDS011;11967;50.852;4.400;2022-07-19T08:54:58;6.05;;;2.63;;
23578;SDS011;11967;50.852;4.400;2022-07-19T08:57:24;8.27;;;2.75;;
23578;SDS011;11967;50.852;4.400;2022-07-19T09:00:08;6.63;;;3.10;;
23578;SDS011;11967;50.852;4.400;2022-07-19T09:02:35;8.75;;;2.80;;
23578;SDS011;11967;50.852;4.400;2022-07-19T09:05:08;10.23;;;3.08;;
23578;SDS011;11967;50.852;4.400;2022-07-19T09:07:35;10.93;;;3.10;;
23578;SDS011;11967;50.852;4.400;2022-07-19T09:10:16;11.05;;;2.80;;
23578;SDS011;11967;50.852;4.400;2022-07-19T09:12:58;9.73;;;3.00;;
23578;SDS011;11967;50.852;4.400;2022-07-19T09:18:11;8.82;;;2.90;;
23578;SDS011;11967;50.852;4.400;2022-07-19T09:20:49;5.90;;;2.90;;
23578;SDS011;11967;50.852;4.400;2022-07-19T09:23:22;11.13;;;3.13;;
23578;SDS011;11967;50.852;4.400;2022-07-19T09:28:16;4.63;;;2.75;;
23578;SDS011;11967;50.852;4.400;2022-07-19T09:30:44;8.98;;;3.40;;
23578;SDS011;11967;50.852;4.400;2022-07-19T09:33:12;5.30;;;2.90;;
23578;SDS011;11967;50.852;4.400;2022-07-19T09:38:17;12.55;;;3.58;;
23578;SDS011;11967;50.852;4.400;2022-07-19T09:40:49;8.35;;;2.90;;
23578;SDS011;11967;50.852;4.400;2022-07-19T09:43:17;10.90;;;3.50;;
23578;SDS011;11967;50.852;4.400;2022-07-19T09:45:45;8.20;;;3.20;;
23578;SDS011;11967;50.852;4.400;2022-07-19T09:48:11;8.88;;;3.22;;
23578;SDS011;11967;50.852;4.400;2022-07-19T09:50:37;11.90;;;4.18;;
23578;SDS011;11967;50.852;4.400;2022-07-19T09:53:03;12.35;;;3.78;;
23578;SDS011;11967;50.852;4.400;2022-07-19T09:55:30;10.50;;;3.58;;
23578;SDS011;11967;50.852;4.400;2022-07-19T09:57:57;8.57;;;3.45;;
23578;SDS011;11967;50.852;4.400;2022-07-19T10:00:25;7.70;;;3.35;;
23578;SDS011;11967;50.852;4.400;2022-07-19T10:02:53;9.73;;;3.33;;
23578;SDS011;11967;50.852;4.400;2022-07-19T10:05:21;7.70;;;3.38;;
23578;SDS011;11967;50.852;4.400;2022-07-19T10:07:47;10.05;;;3.65;;
23578;SDS011;11967;50.852;4.400;2022-07-19T10:10:14;9.30;;;3.10;;
23578;SDS011;11967;50.852;4.400;2022-07-19T10:12:42;8.02;;;3.13;;
23578;SDS011;11967;50.852;4.400;2022-07-19T10:15:10;9.23;;;3.30;;
23578;SDS011;11967;50.852;4.400;2022-07-19T10:17:49;7.20;;;3.05;;
23578;SDS011;11967;50.852;4.400;2022-07-19T10:20:27;11.43;;;3.20;;
23578;SDS011;11967;50.852;4.400;2022-07-19T10:22:57;7.72;;;3.13;;
23578;SDS011;11967;50.852;4.400;2022-07-19T10:25:24;8.02;;;2.92;;
23578;SDS011;11967;50.852;4.400;2022-07-19T10:28:01;6.53;;;3.20;;
23578;SDS011;11967;50.852;4.400;2022-07-19T10:30:26;8.90;;;2.97;;
23578;SDS011;11967;50.852;4.400;2022-07-19T10:32:53;5.72;;;2.90;;
23578;SDS011;11967;50.852;4.400;2022-07-19T10:35:27;7.93;;;2.70;;
23578;SDS011;11967;50.852;4.400;2022-07-19T10:40:45;7.75;;;2.67;;
23578;SDS011;11967;50.852;4.400;2022-07-19T10:43:13;12.65;;;3.03;;
23578;SDS011;11967;50.852;4.400;2022-07-19T10:48:45;7.00;;;2.90;;
23578;SDS011;11967;50.852;4.400;2022-07-19T10:51:30;6.85;;;2.83;;
23578;SDS011;11967;50.852;4.400;2022-07-19T10:56:28;6.60;;;2.92;;
23578;SDS011;11967;50.852;4.400;2022-07-19T10:59:09;5.32;;;2.65;;
23578;SDS011;11967;50.852;4.400;2022-07-19T11:01:37;5.55;;;2.67;;
23578;SDS011;11967;50.852;4.400;2022-07-19T11:07:09;7.55;;;2.30;;
23578;SDS011;11967;50.852;4.400;2022-07-19T11:09:40;6.60;;;2.53;;
23578;SDS011;11967;50.852;4.400;2022-07-19T11:12:18;6.65;;;2.70;;
23578;SDS011;11967;50.852;4.400;2022-07-19T11:14:47;5.95;;;2.53;;
23578;SDS011;11967;50.852;4.400;2022-07-19T11:17:13;10.35;;;2.67;;
23578;SDS011;11967;50.852;4.400;2022-07-19T11:19:55;7.30;;;2.90;;
23578;SDS011;11967;50.852;4.400;2022-07-19T11:22:36;7.28;;;2.78;;
23578;SDS011;11967;50.852;4.400;2022-07-19T11:25:05;10.60;;;2.78;;
23578;SDS011;11967;50.852;4.400;2022-07-19T11:27:32;6.55;;;2.85;;
23578;SDS011;11967;50.852;4.400;2022-07-19T11:30:00;6.97;;;3.10;;
23578;SDS011;11967;50.852;4.400;2022-07-19T11:32:27;69.45;;;6.63;;
23578;SDS011;11967;50.852;4.400;2022-07-19T11:34:58;11.13;;;2.90;;
23578;SDS011;11967;50.852;4.400;2022-07-19T11:37:26;11.07;;;3.17;;
23578;SDS011;11967;50.852;4.400;2022-07-19T11:39:53;12.50;;;2.83;;
23578;SDS011;11967;50.852;4.400;2022-07-19T11:47:45;12.38;;;3.13;;
23578;SDS011;11967;50.852;4.400;2022-07-19T11:50:16;6.30;;;2.67;;
23578;SDS011;11967;50.852;4.400;2022-07-19T11:55:20;7.40;;;2.85;;
23578;SDS011;11967;50.852;4.400;2022-07-19T11:57:52;8.57;;;2.83;;
23578;SDS011;11967;50.852;4.400;2022-07-19T12:00:19;9.13;;;3.03;;
23578;SDS011;11967;50.852;4.400;2022-07-19T12:02:56;7.40;;;2.75;;
23578;SDS011;11967;50.852;4.400;2022-07-19T12:05:28;11.55;;;3.38;;
23578;SDS011;11967;50.852;4.400;2022-07-19T12:07:57;4.70;;;2.78;;
23578;SDS011;11967;50.852;4.400;2022-07-19T12:10:38;7.68;;;3.15;;
23578;SDS011;11967;50.852;4.400;2022-07-19T12:13:14;9.13;;;2.85;;
23578;SDS011;11967;50.852;4.400;2022-07-19T12:15:54;11.25;;;3.17;;
23578;SDS011;11967;50.852;4.400;2022-07-19T12:18:23;10.32;;;2.80;;
23578;SDS011;11967;50.852;4.400;2022-07-19T12:21:42;9.57;;;3.05;;
23578;SDS011;11967;50.852;4.400;2022-07-19T12:24:18;9.23;;;2.92;;
23578;SDS011;11967;50.852;4.400;2022-07-19T12:29:21;9.52;;;3.33;;
23578;SDS011;11967;50.852;4.400;2022-07-19T12:31:52;10.82;;;3.38;;
23578;SDS011;11967;50.852;4.400;2022-07-19T12:34:20;10.95;;;3.35;;
23578;SDS011;11967;50.852;4.400;2022-07-19T12:36:47;9.90;;;3.20;;
23578;SDS011;11967;50.852;4.400;2022-07-19T12:39:26;8.13;;;2.92;;
23578;SDS011;11967;50.852;4.400;2022-07-19T12:41:58;7.35;;;2.88;;
23578;SDS011;11967;50.852;4.400;2022-07-19T12:44:26;6.05;;;2.97;;
23578;SDS011;11967;50.852;4.400;2022-07-19T12:46:53;8.23;;;2.83;;
23578;SDS011;11967;50.852;4.400;2022-07-19T12:49:19;7.85;;;3.60;;
23578;SDS011;11967;50.852;4.400;2022-07-19T12:51:45;7.25;;;2.92;;
23578;SDS011;11967;50.852;4.400;2022-07-19T12:54:14;11.18;;;3.05;;
23578;SDS011;11967;50.852;4.400;2022-07-19T12:56:40;6.30;;;3.08;;
23578;SDS011;11967;50.852;4.400;2022-07-19T12:59:06;8.88;;;3.25;;
23578;SDS011;11967;50.852;4.400;2022-07-19T13:01:51;10.02;;;3.15;;
23578;SDS011;11967;50.852;4.400;2022-07-19T13:04:17;12.73;;;3.15;;
23578;SDS011;11967;50.852;4.400;2022-07-19T13:06:43;10.80;;;3.25;;
23578;SDS011;11967;50.852;4.400;2022-07-19T13:09:09;7.18;;;3.05;;
23578;SDS011;11967;50.852;4.400;2022-07-19T13:11:35;11.35;;;3.03;;
23578;SDS011;11967;50.852;4.400;2022-07-19T13:14:02;10.68;;;3.25;;
23578;SDS011;11967;50.852;4.400;2022-07-19T13:16:30;11.77;;;2.88;;
23578;SDS011;11967;50.852;4.400;2022-07-19T13:18:57;7.25;;;2.80;;
23578;SDS011;11967;50.852;4.400;2022-07-19T13:21:22;7.80;;;2.90;;
23578;SDS011;11967;50.852;4.400;2022-07-19T13:23:48;7.97;;;3.03;;
23578;SDS011;11967;50.852;4.400;2022-07-19T13:26:14;10.10;;;3.13;;
23578;SDS011;11967;50.852;4.400;2022-07-19T13:28:39;6.43;;;3.08;;
23578;SDS011;11967;50.852;4.400;2022-07-19T13:31:05;10.38;;;3.20;;
23578;SDS011;11967;50.852;4.400;2022-07-19T13:33:30;11.63;;;3.22;;
23578;SDS011;11967;50.852;4.400;2022-07-19T13:35:56;4.88;;;2.70;;
23578;SDS011;11967;50.852;4.400;2022-07-19T13:38:22;10.60;;;3.20;;
23578;SDS011;11967;50.852;4.400;2022-07-19T13:40:48;8.70;;;2.85;;
23578;SDS011;11967;50.852;4.400;2022-07-19T13:43:14;10.48;;;2.88;;
23578;SDS011;11967;50.852;4.400;2022-07-19T13:45:40;7.13;;;2.85;;
23578;SDS011;11967;50.852;4.400;2022-07-19T13:48:05;10.32;;;2.78;;
23578;SDS011;11967;50.852;4.400;2022-07-19T13:50:31;7.70;;;3.13;;
23578;SDS011;11967;50.852;4.400;2022-07-19T13:52:58;10.15;;;3.30;;
23578;SDS011;11967;50.852;4.400;2022-07-19T13:55:25;9.13;;;2.67;;
23578;SDS011;11967;50.852;4.400;2022-07-19T13:57:52;6.63;;;2.85;;
23578;SDS011;11967;50.852;4.400;2022-07-19T14:00:17;11.30;;;3.15;;
23578;SDS011;11967;50.852;4.400;2022-07-19T14:02:44;4.38;;;2.63;;
23578;SDS011;11967;50.852;4.400;2022-07-19T14:05:10;8.45;;;2.40;;
23578;SDS011;11967;50.852;4.400;2022-07-19T14:07:36;7.72;;;2.25;;
23578;SDS011;11967;50.852;4.400;2022-07-19T14:10:02;13.68;;;2.58;;
23578;SDS011;11967;50.852;4.400;2022-07-19T14:12:29;5.57;;;2.38;;
23578;SDS011;11967;50.852;4.400;2022-07-19T14:14:55;6.82;;;2.35;;
23578;SDS011;11967;50.852;4.400;2022-07-19T14:17:22;8.10;;;2.03;;
23578;SDS011;11967;50.852;4.400;2022-07-19T14:19:48;6.60;;;2.42;;
23578;SDS011;11967;50.852;4.400;2022-07-19T14:22:14;5.30;;;2.20;;
23578;SDS011;11967;50.852;4.400;2022-07-19T14:24:40;6.57;;;2.15;;
23578;SDS011;11967;50.852;4.400;2022-07-19T14:27:06;5.13;;;2.00;;
23578;SDS011;11967;50.852;4.400;2022-07-19T14:29:32;5.45;;;2.17;;
23578;SDS011;11967;50.852;4.400;2022-07-19T14:31:59;8.13;;;2.30;;
23578;SDS011;11967;50.852;4.400;2022-07-19T14:34:25;5.57;;;2.10;;
23578;SDS011;11967;50.852;4.400;2022-07-19T14:36:50;3.97;;;1.95;;
23578;SDS011;11967;50.852;4.400;2022-07-19T14:39:18;4.55;;;2.30;;
23578;SDS011;11967;50.852;4.400;2022-07-19T14:41:44;9.23;;;2.20;;
23578;SDS011;11967;50.852;4.400;2022-07-19T14:44:09;6.97;;;2.30;;
23578;SDS011;11967;50.852;4.400;2022-07-19T14:46:35;11.60;;;2.42;;
23578;SDS011;11967;50.852;4.400;2022-07-19T14:49:00;3.22;;;2.30;;
23578;SDS011;11967;50.852;4.400;2022-07-19T14:51:26;5.53;;;2.35;;
23578;SDS011;11967;50.852;4.400;2022-07-19T14:53:52;4.43;;;2.15;;
23578;SDS011;11967;50.852;4.400;2022-07-19T14:56:18;4.50;;;2.20;;
23578;SDS011;11967;50.852;4.400;2022-07-19T14:58:44;5.20;;;2.08;;
23578;SDS011;11967;50.852;4.400;2022-07-19T15:01:11;4.53;;;1.80;;
23578;SDS011;11967;50.852;4.400;2022-07-19T15:03:37;3.88;;;1.83;;
23578;SDS011;11967;50.852;4.400;2022-07-19T15:06:02;5.35;;;1.90;;
23578;SDS011;11967;50.852;4.400;2022-07-19T15:08:28;4.47;;;2.00;;
23578;SDS011;11967;50.852;4.400;2022-07-19T15:10:54;4.05;;;2.00;;
23578;SDS011;11967;50.852;4.400;2022-07-19T15:13:20;7.82;;;2.00;;
23578;SDS011;11967;50.852;4.400;2022-07-19T15:15:45;4.72;;;2.20;;
23578;SDS011;11967;50.852;4.400;2022-07-19T15:18:11;7.70;;;2.38;;
23578;SDS011;11967;50.852;4.400;2022-07-19T15:20:37;5.65;;;2.20;;
23578;SDS011;11967;50.852;4.400;2022-07-19T15:23:03;4.97;;;2.20;;
23578;SDS011;11967;50.852;4.400;2022-07-19T15:25:30;7.47;;;2.72;;
23578;SDS011;11967;50.852;4.400;2022-07-19T15:27:55;4.10;;;2.30;;